Time;durP1;ratioP1;P1;durP2;ratioP2;P2;SDS_P1;SDS_P2;PMS_P1;PMS_P2;Temp;Humidity;BMP_temperature;BMP_pressure;BME280_temperature;BME280_humidity;BME280_pressure;Samples;Min_cycle;Max_cycle;Signal;HPM_P1;HPM_P2
2023/08/17 00:00:18;;;;;;;;;;;;;;;;;;4859702;29;19927;-87
2023/08/17 00:09:03;;;;;;;;;;;;;;;;;;4877189;29;20314;-87
2023/08/17 00:16:46;;;;;;;;;;;;;;;;;;5096350;23;19943;-87
2023/08/17 00:22:03;;;;;;;;;;;;;;;;;;4817904;29;19932;-87
2023/08/17 00:24:32;;;;;;;;;;;;;;;;;;4808025;29;20948;-88
2023/08/17 00:29:47;;;;;;;;;;;;;;;;;;4806862;29;20094;-87
2023/08/17 00:32:18;;;;;;;;;;;;;;;;;;4826232;29;19924;-87
2023/08/17 00:34:47;;;;;;;;;;;;;;;;;;4812203;29;20035;-88
2023/08/17 00:37:16;;;;;;;;;;;;;;;;;;4826310;29;19932;-89
2023/08/17 00:39:47;;;;;;;;;;;;;;;;;;4828658;29;19943;-89
2023/08/17 00:45:22;;;;;;;;;;;;;;;;;;5271443;23;20492;-93
2023/08/17 00:47:48;;;;;;;;;;;;;;;;;;4839674;29;20085;-93
2023/08/17 00:50:17;;;;;;;;;;;;;;;;;;4834330;29;19935;-93
2023/08/17 00:52:45;;;;;;;;;;;;;;;;;;4823422;29;19930;-92
2023/08/17 00:55:17;;;;;;;;;;;;;;;;;;4834692;29;20081;-93
2023/08/17 00:57:43;;;;;;;;;;;;;;;;;;4835847;29;19935;-93
2023/08/17 01:00:09;;;;;;;;;;;;;;;;;;4829364;29;19936;-92
2023/08/17 01:02:35;;;;;;;;;;;;;;;;;;4808931;29;19943;-93
2023/08/17 01:05:01;;;;;;;;;;;;;;;;;;4833783;29;19939;-93
2023/08/17 01:07:28;;;;;;;;;;;;;;;;;;4812090;29;20395;-92
2023/08/17 01:09:54;;;;;;;;;;;;;;;;;;4830027;29;20861;-92
2023/08/17 01:12:20;;;;;;;;;;;;;;;;;;4810511;29;19928;-93
2023/08/17 01:14:46;;;;;;;;;;;;;;;;;;4821124;29;19932;-93
2023/08/17 01:17:20;;;;;;;;;;;;;;;;;;4812658;29;19964;-93
2023/08/17 01:19:46;;;;;;;;;;;;;;;;;;4813199;29;19972;-93
2023/08/17 01:22:12;;;;;;;;;;;;;;;;;;4819111;29;20017;-93
2023/08/17 01:24:38;;;;;;;;;;;;;;;;;;4814981;29;20376;-93
2023/08/17 01:27:04;;;;;;;;;;;;;;;;;;4819665;29;19930;-92
2023/08/17 01:29:33;;;;;;;;;;;;;;;;;;4828045;29;19976;-93
2023/08/17 01:31:59;;;;;;;;;;;;;;;;;;4817258;29;19928;-93
2023/08/17 01:34:25;;;;;;;;;;;;;;;;;;4829094;29;20245;-92
2023/08/17 01:36:51;;;;;;;;;;;;;;;;;;4817846;29;19964;-93
2023/08/17 01:39:17;;;;;;;;;;;;;;;;;;4815368;29;20299;-93
2023/08/17 01:41:43;;;;;;;;;;;;;;;;;;4832800;29;19929;-93
2023/08/17 01:44:09;;;;;;;;;;;;;;;;;;4819505;29;20719;-93
2023/08/17 01:46:35;;;;;;;;;;;;;;;;;;4813203;29;19943;-93
2023/08/17 01:49:01;;;;;;;;;;;;;;;;;;4814490;29;19929;-92
2023/08/17 01:51:27;;;;;;;;;;;;;;;;;;4812475;29;19924;-93
2023/08/17 01:53:53;;;;;;;;;;;;;;;;;;4797199;29;20026;-92
2023/08/17 01:56:19;;;;;;;;;;;;;;;;;;4794077;29;20036;-93
2023/08/17 01:58:45;;;;;;;;;;;;;;;;;;4808480;29;19966;-93
2023/08/17 02:01:11;;;;;;;;;;;;;;;;;;4793542;29;19932;-93
2023/08/17 02:03:37;;;;;;;;;;;;;;;;;;4790690;29;19943;-92
2023/08/17 02:06:03;;;;;;;;;;;;;;;;;;4806670;29;20326;-93
2023/08/17 02:08:29;;;;;;;;;;;;;;;;;;4809409;29;19932;-92
2023/08/17 02:10:55;;;;;;;;;;;;;;;;;;4810443;29;19925;-93
2023/08/17 02:13:21;;;;;;;;;;;;;;;;;;4789828;29;19936;-93
2023/08/17 02:15:47;;;;;;;;;;;;;;;;;;4795433;29;20023;-93
2023/08/17 02:18:13;;;;;;;;;;;;;;;;;;4824784;29;19935;-93
2023/08/17 02:20:39;;;;;;;;;;;;;;;;;;4792915;29;20024;-93
2023/08/17 02:23:05;;;;;;;;;;;;;;;;;;4801711;29;19929;-93
2023/08/17 02:25:35;;;;;;;;;;;;;;;;;;4809559;29;20023;-92
2023/08/17 02:28:01;;;;;;;;;;;;;;;;;;4814777;29;20456;-93
2023/08/17 02:30:27;;;;;;;;;;;;;;;;;;4808902;29;19924;-93
2023/08/17 02:32:53;;;;;;;;;;;;;;;;;;4802036;29;19980;-93
2023/08/17 02:35:19;;;;;;;;;;;;;;;;;;4798982;29;19928;-93
2023/08/17 02:37:45;;;;;;;;;;;;;;;;;;4800940;29;20476;-94
2023/08/17 02:40:11;;;;;;;;;;;;;;;;;;4811286;29;19932;-93
2023/08/17 02:42:39;;;;;;;;;;;;;;;;;;4800385;29;19987;-92
2023/08/17 02:45:05;;;;;;;;;;;;;;;;;;4823208;29;19956;-92
2023/08/17 02:47:31;;;;;;;;;;;;;;;;;;4818782;29;19932;-93
2023/08/17 02:49:57;;;;;;;;;;;;;;;;;;4835187;29;19924;-93
2023/08/17 02:52:23;;;;;;;;;;;;;;;;;;4828013;29;19932;-93
2023/08/17 02:54:49;;;;;;;;;;;;;;;;;;4813953;29;20030;-93
2023/08/17 02:57:18;;;;;;;;;;;;;;;;;;4830582;29;19924;-93
2023/08/17 02:59:44;;;;;;;;;;;;;;;;;;4816591;29;19978;-93
2023/08/17 03:02:10;;;;;;;;;;;;;;;;;;4816837;29;19971;-92
2023/08/17 03:04:36;;;;;;;;;;;;;;;;;;4810221;29;23138;-93
2023/08/17 03:07:02;;;;;;;;;;;;;;;;;;4829011;29;19924;-92
2023/08/17 03:09:28;;;;;;;;;;;;;;;;;;4827663;29;19928;-92
2023/08/17 03:11:54;;;;;;;;;;;;;;;;;;4831957;29;20475;-93
2023/08/17 03:14:20;;;;;;;;;;;;;;;;;;4814191;29;19939;-93
2023/08/17 03:16:46;;;;;;;;;;;;;;;;;;4814081;29;19971;-93
2023/08/17 03:19:12;;;;;;;;;;;;;;;;;;4829287;29;20074;-93
2023/08/17 03:21:38;;;;;;;;;;;;;;;;;;4824238;29;19930;-92
2023/08/17 03:24:04;;;;;;;;;;;;;;;;;;4816610;29;19928;-93
2023/08/17 03:26:30;;;;;;;;;;;;;;;;;;4827469;29;19938;-93
2023/08/17 03:28:56;;;;;;;;;;;;;;;;;;4818921;29;19932;-94
2023/08/17 03:31:22;;;;;;;;;;;;;;;;;;4828650;29;19961;-93
2023/08/17 03:33:48;;;;;;;;;;;;;;;;;;4829111;29;19936;-92
2023/08/17 03:36:14;;;;;;;;;;;;;;;;;;4833948;29;20414;-92
2023/08/17 03:38:43;;;;;;;;;;;;;;;;;;4830870;29;19939;-93
2023/08/17 03:41:09;;;;;;;;;;;;;;;;;;4815027;29;19931;-92
2023/08/17 03:43:35;;;;;;;;;;;;;;;;;;4828171;29;20640;-92
2023/08/17 03:46:01;;;;;;;;;;;;;;;;;;4819140;29;19939;-93
2023/08/17 03:48:27;;;;;;;;;;;;;;;;;;4794660;29;20810;-92
2023/08/17 03:50:53;;;;;;;;;;;;;;;;;;4798806;29;19924;-92
2023/08/17 03:53:19;;;;;;;;;;;;;;;;;;4804328;29;19932;-93
2023/08/17 03:55:45;;;;;;;;;;;;;;;;;;4795106;29;19928;-92
2023/08/17 03:58:11;;;;;;;;;;;;;;;;;;4810343;29;20394;-92
2023/08/17 04:00:37;;;;;;;;;;;;;;;;;;4791092;29;19937;-93
2023/08/17 04:03:06;;;;;;;;;;;;;;;;;;4813363;29;20065;-92
2023/08/17 04:05:34;;;;;;;;;;;;;;;;;;4794921;29;20307;-93
2023/08/17 04:08:02;;;;;;;;;;;;;;;;;;4799997;29;19932;-93
2023/08/17 04:10:28;;;;;;;;;;;;;;;;;;4796938;29;19939;-93
2023/08/17 04:12:54;;;;;;;;;;;;;;;;;;4813618;29;20299;-93
2023/08/17 04:15:20;;;;;;;;;;;;;;;;;;4809457;29;19928;-93
2023/08/17 04:17:46;;;;;;;;;;;;;;;;;;4799583;29;19939;-93
2023/08/17 04:20:12;;;;;;;;;;;;;;;;;;4816062;29;19932;-93
2023/08/17 04:22:38;;;;;;;;;;;;;;;;;;4812989;29;19928;-92
2023/08/17 04:25:04;;;;;;;;;;;;;;;;;;4817640;29;19992;-94
2023/08/17 04:27:30;;;;;;;;;;;;;;;;;;4801342;29;19968;-92
2023/08/17 04:29:58;;;;;;;;;;;;;;;;;;4826663;29;19976;-93
2023/08/17 04:32:24;;;;;;;;;;;;;;;;;;4813142;29;19936;-92
2023/08/17 04:34:50;;;;;;;;;;;;;;;;;;4801098;29;19992;-92
2023/08/17 04:37:16;;;;;;;;;;;;;;;;;;4807698;29;19929;-93
2023/08/17 04:39:43;;;;;;;;;;;;;;;;;;4811874;29;19937;-92
2023/08/17 04:42:09;;;;;;;;;;;;;;;;;;4813992;29;20388;-92
2023/08/17 04:44:38;;;;;;;;;;;;;;;;;;4798528;29;19939;-93
2023/08/17 04:47:05;;;;;;;;;;;;;;;;;;4834325;29;20291;-93
2023/08/17 04:49:31;;;;;;;;;;;;;;;;;;4826325;29;20413;-92
2023/08/17 04:51:57;;;;;;;;;;;;;;;;;;4834932;29;19967;-93
2023/08/17 04:54:23;;;;;;;;;;;;;;;;;;4846701;29;19934;-92
2023/08/17 04:56:49;;;;;;;;;;;;;;;;;;4816673;29;20348;-92
2023/08/17 04:59:18;;;;;;;;;;;;;;;;;;4813920;29;19935;-92
2023/08/17 05:01:44;;;;;;;;;;;;;;;;;;4830433;29;19932;-92
2023/08/17 05:04:10;;;;;;;;;;;;;;;;;;4832544;29;19966;-93
2023/08/17 05:06:38;;;;;;;;;;;;;;;;;;4825439;29;19968;-93
2023/08/17 05:09:07;;;;;;;;;;;;;;;;;;4813173;29;19928;-92
2023/08/17 05:11:33;;;;;;;;;;;;;;;;;;4830892;29;19928;-92
2023/08/17 05:13:59;;;;;;;;;;;;;;;;;;4831294;29;20368;-91
2023/08/17 05:16:25;;;;;;;;;;;;;;;;;;4826174;29;19976;-92
2023/08/17 05:18:51;;;;;;;;;;;;;;;;;;4830185;29;19954;-93
2023/08/17 05:21:17;;;;;;;;;;;;;;;;;;4823639;29;19929;-92
2023/08/17 05:23:43;;;;;;;;;;;;;;;;;;4816293;29;19928;-93
2023/08/17 05:26:09;;;;;;;;;;;;;;;;;;4832044;29;19931;-93
2023/08/17 05:28:35;;;;;;;;;;;;;;;;;;4816950;29;19932;-93
2023/08/17 05:31:04;;;;;;;;;;;;;;;;;;4830287;29;19936;-93
2023/08/17 05:33:30;;;;;;;;;;;;;;;;;;4811185;29;20076;-92
2023/08/17 05:35:58;;;;;;;;;;;;;;;;;;4816483;29;19932;-93
2023/08/17 05:38:27;;;;;;;;;;;;;;;;;;4826446;29;19999;-92
2023/08/17 05:40:55;;;;;;;;;;;;;;;;;;4832023;29;20736;-93
2023/08/17 05:43:24;;;;;;;;;;;;;;;;;;4824465;29;19940;-93
2023/08/17 05:45:50;;;;;;;;;;;;;;;;;;4845477;29;19928;-92
2023/08/17 05:48:16;;;;;;;;;;;;;;;;;;4816238;29;20372;-93
2023/08/17 05:50:42;;;;;;;;;;;;;;;;;;4817986;29;20019;-93
2023/08/17 05:53:08;;;;;;;;;;;;;;;;;;4820018;29;19935;-93
2023/08/17 05:55:34;;;;;;;;;;;;;;;;;;4814226;29;20064;-93
2023/08/17 05:58:02;;;;;;;;;;;;;;;;;;4813895;29;20019;-93
2023/08/17 06:00:28;;;;;;;;;;;;;;;;;;4829905;29;20725;-94
2023/08/17 06:03:00;;;;;;;;;;;;;;;;;;4817870;29;21554;-92
2023/08/17 06:05:27;;;;;;;;;;;;;;;;;;4813599;29;19927;-93
2023/08/17 06:07:53;;;;;;;;;;;;;;;;;;4831775;29;19924;-92
2023/08/17 06:10:24;;;;;;;;;;;;;;;;;;4830375;29;20016;-93
2023/08/17 06:12:50;;;;;;;;;;;;;;;;;;4837556;29;19960;-93
2023/08/17 06:15:19;;;;;;;;;;;;;;;;;;4834002;29;20475;-92
2023/08/17 06:17:45;;;;;;;;;;;;;;;;;;4820587;29;19969;-93
2023/08/17 06:20:11;;;;;;;;;;;;;;;;;;4854362;29;19942;-93
2023/08/17 06:22:37;;;;;;;;;;;;;;;;;;4834038;29;19928;-93
2023/08/17 06:25:04;;;;;;;;;;;;;;;;;;4837654;29;19948;-92
2023/08/17 06:27:33;;;;;;;;;;;;;;;;;;4827846;29;19934;-93
2023/08/17 06:29:59;;;;;;;;;;;;;;;;;;4846811;29;20012;-93
2023/08/17 06:32:27;;;;;;;;;;;;;;;;;;4826507;29;19924;-93
2023/08/17 06:34:54;;;;;;;;;;;;;;;;;;4828725;29;20335;-93
2023/08/17 06:37:20;;;;;;;;;;;;;;;;;;4825808;29;20393;-92
2023/08/17 06:39:46;;;;;;;;;;;;;;;;;;4844136;29;19936;-93
2023/08/17 06:42:12;;;;;;;;;;;;;;;;;;4827053;29;19932;-93
2023/08/17 06:44:38;;;;;;;;;;;;;;;;;;4845909;29;19928;-92
2023/08/17 06:47:07;;;;;;;;;;;;;;;;;;4831546;29;19928;-93
2023/08/17 06:49:36;;;;;;;;;;;;;;;;;;4827384;29;19932;-93
2023/08/17 06:52:02;;;;;;;;;;;;;;;;;;4829084;29;19928;-93
2023/08/17 06:54:28;;;;;;;;;;;;;;;;;;4840638;29;20014;-92
2023/08/17 06:57:00;;;;;;;;;;;;;;;;;;4848014;29;19927;-93
2023/08/17 06:59:28;;;;;;;;;;;;;;;;;;4842271;29;19939;-93
2023/08/17 07:01:57;;;;;;;;;;;;;;;;;;4838513;29;20444;-93
2023/08/17 07:04:23;;;;;;;;;;;;;;;;;;4820290;29;20728;-94
2023/08/17 07:06:52;;;;;;;;;;;;;;;;;;4841991;29;19999;-93
2023/08/17 07:09:21;;;;;;;;;;;;;;;;;;4839566;29;19963;-94
2023/08/17 07:11:47;;;;;;;;;;;;;;;;;;4839572;29;19928;-93
2023/08/17 07:14:13;;;;;;;;;;;;;;;;;;4827235;29;19988;-92
2023/08/17 07:16:39;;;;;;;;;;;;;;;;;;4824492;29;19928;-93
2023/08/17 07:19:05;;;;;;;;;;;;;;;;;;4838768;29;19928;-93
2023/08/17 07:21:31;;;;;;;;;;;;;;;;;;4826595;29;19933;-93
2023/08/17 07:23:57;;;;;;;;;;;;;;;;;;4845173;29;19924;-92
2023/08/17 07:26:23;;;;;;;;;;;;;;;;;;4829964;29;19927;-92
2023/08/17 07:28:49;;;;;;;;;;;;;;;;;;4851772;29;19928;-92
2023/08/17 07:31:18;;;;;;;;;;;;;;;;;;4851272;29;19924;-93
2023/08/17 07:33:44;;;;;;;;;;;;;;;;;;4847996;29;19949;-92
2023/08/17 07:36:12;;;;;;;;;;;;;;;;;;4835998;29;20003;-93
2023/08/17 07:38:39;;;;;;;;;;;;;;;;;;4845158;29;19932;-93
2023/08/17 07:41:10;;;;;;;;;;;;;;;;;;4846154;29;20325;-92
2023/08/17 07:43:39;;;;;;;;;;;;;;;;;;4831508;29;20035;-93
2023/08/17 07:46:11;;;;;;;;;;;;;;;;;;4846525;29;19936;-94
2023/08/17 07:48:37;;;;;;;;;;;;;;;;;;4838021;29;19958;-93
2023/08/17 07:51:03;;;;;;;;;;;;;;;;;;4832815;29;20382;-93
2023/08/17 07:53:31;;;;;;;;;;;;;;;;;;4842849;29;19932;-92
2023/08/17 07:56:00;;;;;;;;;;;;;;;;;;4847095;29;19971;-93
2023/08/17 07:58:26;;;;;;;;;;;;;;;;;;4824677;29;19971;-94
2023/08/17 08:00:55;;;;;;;;;;;;;;;;;;4826700;29;19932;-94
2023/08/17 08:03:21;;;;;;;;;;;;;;;;;;4824368;29;19932;-94
2023/08/17 08:05:47;;;;;;;;;;;;;;;;;;4824203;29;19924;-93
2023/08/17 08:08:14;;;;;;;;;;;;;;;;;;4844854;29;19932;-92
2023/08/17 08:10:46;;;;;;;;;;;;;;;;;;4840756;29;20460;-93
2023/08/17 08:13:12;;;;;;;;;;;;;;;;;;4824813;29;19928;-94
2023/08/17 08:15:38;;;;;;;;;;;;;;;;;;4845887;29;20503;-93
2023/08/17 08:18:08;;;;;;;;;;;;;;;;;;4843480;29;19928;-91
2023/08/17 08:20:37;;;;;;;;;;;;;;;;;;4830654;29;19933;-93
2023/08/17 08:23:03;;;;;;;;;;;;;;;;;;4851678;29;19939;-92
2023/08/17 08:25:37;;;;;;;;;;;;;;;;;;4836029;29;19968;-93
2023/08/17 08:28:03;;;;;;;;;;;;;;;;;;4853600;29;19924;-92
2023/08/17 08:30:36;;;;;;;;;;;;;;;;;;4835132;29;19928;-94
2023/08/17 08:33:08;;;;;;;;;;;;;;;;;;4850473;29;19932;-92
2023/08/17 08:35:37;;;;;;;;;;;;;;;;;;4843203;29;21376;-93
2023/08/17 08:38:05;;;;;;;;;;;;;;;;;;4846107;29;20290;-92
2023/08/17 08:40:33;;;;;;;;;;;;;;;;;;4825544;29;19940;-92
2023/08/17 08:43:11;;;;;;;;;;;;;;;;;;4829851;29;19936;-93
2023/08/17 08:45:45;;;;;;;;;;;;;;;;;;4830474;29;20615;-92
2023/08/17 08:48:20;;;;;;;;;;;;;;;;;;4827265;29;19939;-92
2023/08/17 08:50:49;;;;;;;;;;;;;;;;;;4841704;29;19924;-92
2023/08/17 08:53:19;;;;;;;;;;;;;;;;;;4828863;29;19949;-92
2023/08/17 08:55:46;;;;;;;;;;;;;;;;;;4860853;29;19928;-93
2023/08/17 08:58:17;;;;;;;;;;;;;;;;;;4832668;29;19962;-93
2023/08/17 09:00:43;;;;;;;;;;;;;;;;;;4846848;29;20022;-93
2023/08/17 09:03:21;;;;;;;;;;;;;;;;;;;;;
2023/08/17 09:05:49;;;;;;;;;;;;;;;;;;4845724;29;19935;-92
2023/08/17 09:08:18;;;;;;;;;;;;;;;;;;4837363;29;20027;-91
2023/08/17 09:10:52;;;;;;;;;;;;;;;;;;4833238;29;19934;-92
2023/08/17 09:13:18;;;;;;;;;;;;;;;;;;4827434;29;19949;-93
2023/08/17 09:15:44;;;;;;;;;;;;;;;;;;4837839;29;19924;-94
2023/08/17 09:18:10;;;;;;;;;;;;;;;;;;4848113;29;20415;-93
2023/08/17 09:20:37;;;;;;;;;;;;;;;;;;4835989;29;21501;-93
2023/08/17 09:23:12;;;;;;;;;;;;;;;;;;4835485;29;19929;-93
2023/08/17 09:25:38;;;;;;;;;;;;;;;;;;4823867;29;19928;-93
2023/08/17 09:28:10;;;;;;;;;;;;;;;;;;4838876;29;19947;-92
2023/08/17 09:30:36;;;;;;;;;;;;;;;;;;4845207;29;19932;-93
2023/08/17 09:33:02;;;;;;;;;;;;;;;;;;4840545;29;19980;-93
2023/08/17 09:35:34;;;;;;;;;;;;;;;;;;4845985;29;19932;-93
2023/08/17 09:38:09;;;;;;;;;;;;;;;;;;4834420;29;19935;-93
2023/08/17 09:40:38;;;;;;;;;;;;;;;;;;4844135;29;20750;-92
2023/08/17 09:43:06;;;;;;;;;;;;;;;;;;4848368;29;20265;-94
2023/08/17 09:45:35;;;;;;;;;;;;;;;;;;4847593;29;20853;-93
2023/08/17 09:48:04;;;;;;;;;;;;;;;;;;4845873;29;20029;-93
2023/08/17 09:50:30;;;;;;;;;;;;;;;;;;4845815;29;19980;-93
2023/08/17 09:52:59;;;;;;;;;;;;;;;;;;4833022;29;19924;-94
2023/08/17 09:55:40;;;;;;;;;;;;;;;;;;4843509;29;19958;-93
2023/08/17 09:58:06;;;;;;;;;;;;;;;;;;4841951;29;19928;-92
2023/08/17 10:00:49;;;;;;;;;;;;;;;;;;4836615;29;19997;-93
2023/08/17 10:03:16;;;;;;;;;;;;;;;;;;4843778;29;20463;-92
2023/08/17 10:05:48;;;;;;;;;;;;;;;;;;4829426;29;19935;-94
2023/08/17 10:08:19;;;;;;;;;;;;;;;;;;4839461;29;19996;-93
2023/08/17 10:10:45;;;;;;;;;;;;;;;;;;4857065;29;19981;-93
2023/08/17 10:13:13;;;;;;;;;;;;;;;;;;4838976;29;20009;-93
2023/08/17 10:15:41;;;;;;;;;;;;;;;;;;4838715;29;19932;-93
2023/08/17 10:18:07;;;;;;;;;;;;;;;;;;4833156;29;19935;-92
2023/08/17 10:20:39;;;;;;;;;;;;;;;;;;4842625;29;21827;-93
2023/08/17 10:23:08;;;;;;;;;;;;;;;;;;4826286;29;20014;-94
2023/08/17 10:25:39;;;;;;;;;;;;;;;;;;4832244;29;21173;-92
2023/08/17 10:28:05;;;;;;;;;;;;;;;;;;4837885;29;19924;-93
2023/08/17 10:30:31;;;;;;;;;;;;;;;;;;4832025;29;19932;-92
2023/08/17 10:32:57;;;;;;;;;;;;;;;;;;4836296;29;19989;-92
2023/08/17 10:35:23;;;;;;;;;;;;;;;;;;4815354;29;19932;-92
2023/08/17 10:37:49;;;;;;;;;;;;;;;;;;4835902;29;19961;-92
2023/08/17 10:40:17;;;;;;;;;;;;;;;;;;4823237;29;19928;-92
2023/08/17 10:42:46;;;;;;;;;;;;;;;;;;4831686;29;20688;-93
2023/08/17 10:45:12;;;;;;;;;;;;;;;;;;4832782;29;19931;-93
2023/08/17 10:47:40;;;;;;;;;;;;;;;;;;4831885;29;19954;-93
2023/08/17 10:50:11;;;;;;;;;;;;;;;;;;4841096;29;19928;-93
2023/08/17 10:52:37;;;;;;;;;;;;;;;;;;4829816;29;20194;-93
2023/08/17 10:55:06;;;;;;;;;;;;;;;;;;4840338;29;19935;-93
2023/08/17 10:57:34;;;;;;;;;;;;;;;;;;4829740;29;20023;-92
2023/08/17 11:00:00;;;;;;;;;;;;;;;;;;4830087;29;19928;-92
2023/08/17 11:02:26;;;;;;;;;;;;;;;;;;4828963;29;19963;-92
2023/08/17 11:04:52;;;;;;;;;;;;;;;;;;4828137;29;19971;-93
2023/08/17 11:07:21;;;;;;;;;;;;;;;;;;4840740;29;19985;-93
2023/08/17 11:09:49;;;;;;;;;;;;;;;;;;4836890;29;19924;-93
2023/08/17 11:12:18;;;;;;;;;;;;;;;;;;4816021;29;20398;-93
2023/08/17 11:14:47;;;;;;;;;;;;;;;;;;4838232;29;19924;-93
2023/08/17 11:17:13;;;;;;;;;;;;;;;;;;4826618;29;20742;-93
2023/08/17 11:19:39;;;;;;;;;;;;;;;;;;4834881;29;19957;-92
2023/08/17 11:22:06;;;;;;;;;;;;;;;;;;4819662;29;19934;-93
2023/08/17 11:24:33;;;;;;;;;;;;;;;;;;4818274;29;20341;-93
2023/08/17 11:26:59;;;;;;;;;;;;;;;;;;4818851;29;19940;-92
2023/08/17 11:29:27;;;;;;;;;;;;;;;;;;4808481;29;19975;-93
2023/08/17 11:31:54;;;;;;;;;;;;;;;;;;4811321;29;19932;-92
2023/08/17 11:34:20;;;;;;;;;;;;;;;;;;4826133;29;20066;-92
2023/08/17 11:36:47;;;;;;;;;;;;;;;;;;4847748;29;20012;-92
2023/08/17 11:39:20;;;;;;;;;;;;;;;;;;4829795;29;20312;-93
2023/08/17 11:41:46;;;;;;;;;;;;;;;;;;4830124;29;19925;-93
2023/08/17 11:44:12;;;;;;;;;;;;;;;;;;4815050;29;19924;-92
2023/08/17 11:46:38;;;;;;;;;;;;;;;;;;4829603;29;20435;-92
2023/08/17 11:49:05;;;;;;;;;;;;;;;;;;4814506;29;20008;-92
2023/08/17 11:51:32;;;;;;;;;;;;;;;;;;4825472;29;20284;-92
2023/08/17 11:53:58;;;;;;;;;;;;;;;;;;4811390;29;20094;-93
2023/08/17 11:56:24;;;;;;;;;;;;;;;;;;4829904;29;20674;-92
2023/08/17 11:58:50;;;;;;;;;;;;;;;;;;4815004;29;19928;-93
2023/08/17 12:01:16;;;;;;;;;;;;;;;;;;4817565;29;20307;-92
2023/08/17 12:03:42;;;;;;;;;;;;;;;;;;4833948;29;20022;-92
2023/08/17 12:45:55;;;;;;;;;;;;;;;;;;;;;
2023/08/17 14:41:42;;;;;;;;;;;;;;;;;;;;;
2023/08/17 14:47:41;;;;;;;;;;;;;;;;;;4868971;29;19926;-88
2023/08/17 14:50:36;;;;;;;;;;;;;;;;;;4842987;29;20380;-88
2023/08/17 14:53:13;;;;;;;;;;;;;;;;;;4855790;29;19932;-88
2023/08/17 14:55:59;;;;;;;;;;;;;;;;;;4857724;29;19928;-88
2023/08/17 14:58:33;;;;;;;;;;;;;;;;;;4851414;29;20463;-88
2023/08/17 15:07:00;;;;;;;;;;;;;;;;;;4842049;29;20005;-88
2023/08/17 15:13:07;;;;;;;;;;;;;;;;;;4804820;29;19987;-89
2023/08/17 15:18:27;;;;;;;;;;;;;;;;;;4805267;29;19967;-88
2023/08/17 15:20:56;;;;;;;;;;;;;;;;;;4810132;29;19944;-88
2023/08/17 15:23:27;;;;;;;;;;;;;;;;;;4855353;29;20378;-90
2023/08/17 15:26:06;;;;;;;;;;;;;;;;;;4860862;29;19934;-89
2023/08/17 15:29:24;;;;;;;;;;;;;;;;;;4853775;29;19989;-88
2023/08/17 15:32:04;;;;;;;;;;;;;;;;;;4848991;29;19993;-90
2023/08/17 15:35:13;;;;;;;;;;;;;;;;;;;;;
2023/08/17 15:37:54;;;;;;;;;;;;;;;;;;4843198;29;20030;-88
2023/08/17 15:40:42;;;;;;;;;;;;;;;;;;;;;
2023/08/17 15:46:29;;;;;;;;;;;;;;;;;;4832192;29;20417;-88
2023/08/17 15:49:03;;;;;;;;;;;;;;;;;;4847167;29;20639;-88
2023/08/17 15:51:32;;;;;;;;;;;;;;;;;;4838686;29;19975;-87
2023/08/17 15:54:04;;;;;;;;;;;;;;;;;;4845519;29;20031;-88
2023/08/17 15:56:33;;;;;;;;;;;;;;;;;;4824460;29;19987;-89
2023/08/17 15:58:59;;;;;;;;;;;;;;;;;;4844925;29;19949;-88
2023/08/17 16:01:30;;;;;;;;;;;;;;;;;;4838013;29;19928;-89
2023/08/17 16:07:28;;;;;;;;;;;;;;;;;;4781481;29;19932;-89
2023/08/17 16:26:44;;;;;;;;;;;;;;;;;;5390531;23;19936;-87
2023/08/17 16:51:05;;;;;;;;;;;;;;;;;;4750091;29;19936;-87
2023/08/17 16:53:59;;;;;;;;;;;;;;;;;;;;;
2023/08/17 17:21:29;;;;;;;;;;;;;;;;;;4683448;30;20037;-86
2023/08/17 21:39:01;;;;;;;;;;;;;;;;;;4758380;23;19995;-86
2023/08/17 21:41:48;;;;;;;;;;;;;;;;;;4864266;29;20427;-87
2023/08/17 21:44:17;;;;;;;;;;;;;;;;;;4846915;29;20065;-87
2023/08/17 21:49:54;;;;;;;;;;;;;;;;;;;;;
2023/08/17 21:52:40;;;;;;;;;;;;;;;;;;4804541;29;19944;-87
2023/08/17 21:55:22;;;;;;;;;;;;;;;;;;;;;
2023/08/17 21:57:59;;;;;;;;;;;;;;;;;;4861750;29;19963;-87
2023/08/17 22:00:38;;;;;;;;;;;;;;;;;;4849994;29;20362;-86
2023/08/17 22:03:04;;;;;;;;;;;;;;;;;;4848210;29;19932;-86
2023/08/17 22:05:33;;;;;;;;;;;;;;;;;;4842919;29;21658;-87
2023/08/17 22:08:03;;;;;;;;;;;;;;;;;;4855982;29;19956;-86
2023/08/17 22:10:35;;;;;;;;;;;;;;;;;;4849124;29;20006;-87
2023/08/17 22:13:10;;;;;;;;;;;;;;;;;;4839535;29;19939;-86
2023/08/17 22:15:54;;;;;;;;;;;;;;;;;;;;;
2023/08/17 22:18:31;;;;;;;;;;;;;;;;;;4852938;29;19928;-87
2023/08/17 22:24:00;;;;;;;;;;;;;;;;;;4829256;29;19938;-87
2023/08/17 22:32:22;;;;;;;;;;;;;;;;;;4781199;29;19925;-85
2023/08/17 22:34:54;;;;;;;;;;;;;;;;;;4822404;29;20061;-85
2023/08/17 22:37:48;;;;;;;;;;;;;;;;;;4810494;29;19929;-85
2023/08/17 22:40:12;;;;;;;;;;;;;;;;;;4807733;29;20376;-85
2023/08/17 22:42:56;;;;;;;;;;;;;;;;;;4810833;29;19933;-85
2023/08/17 22:45:27;;;;;;;;;;;;;;;;;;4820935;29;20300;-85
2023/08/17 22:47:59;;;;;;;;;;;;;;;;;;4810950;29;19943;-85
2023/08/17 22:50:50;;;;;;;;;;;;;;;;;;4805849;29;19939;-85
2023/08/17 22:53:22;;;;;;;;;;;;;;;;;;4808350;29;20312;-85
2023/08/17 22:55:50;;;;;;;;;;;;;;;;;;4825528;29;19972;-84
2023/08/17 22:58:35;;;;;;;;;;;;;;;;;;;;;
2023/08/17 23:07:39;;;;;;;;;;;;;;;;;;4830235;29;20039;-85
2023/08/17 23:22:37;;;;;;;;;;;;;;;;;;4686106;30;19942;-85
2023/08/17 23:31:37;;;;;;;;;;;;;;;;;;;;;
2023/08/17 23:37:40;;;;;;;;;;;;;;;;;;;;;
2023/08/17 23:43:22;;;;;;;;;;;;;;;;;;4766136;29;19998;-85
2023/08/17 23:48:56;;;;;;;;;;;;;;;;;;4784649;29;19941;-85
2023/08/17 23:57:40;;;;;;;;;;;;;;;;;;4839596;29;20222;-85
